CheckWX is a tool to help pilots better visualize weather data.  It is not intended as a substitute for an official pre-flight weather briefing.

20:45:21 UTC

OLBA TAF
Beirut Rafic Hariri International Airport
Beirut, Lebanon
TAF OLBA 071600Z 0718/0824 19006KT 8000 SCT026 SCT050 TEMPO 0718/0806 5000 -RA BECMG 0806/0809 22014KT 8000 FEW023 SCT050 PROB40 0812/0821 6000 -RA BECMG 0818/0820 16005KT

Apr-7@
18:00 UTC

Apr-7 @ 18:00 UTC

Apr-8@
06:00 UTC

Apr-8 @ 06:00 UTC

TAF OLBA 071600Z 0718/0824 19006KT 8000 SCT026 SCT050

Expired

Wind
  • 190° at 6 KTS
Cloud Levels
  • Scattered at 2,600' AGL
  • Scattered at 5,000' AGL

Apr-7@
18:00 UTC

Apr-7 @ 18:00 UTC

Apr-8@
06:00 UTC

Apr-8 @ 06:00 UTC

TEMPO 0718/0806 5000 -RA

Expired

Conditions
Light Rain
Cloud Levels

Apr-8@
06:00 UTC

Apr-8 @ 06:00 UTC

Apr-8@
18:00 UTC

Apr-8 @ 18:00 UTC

BECMG 0806/0809 22014KT 8000 FEW023 SCT050

Expired

Wind
  • 220° at 14 KTS
Cloud Levels
  • Few at 2,300' AGL
  • Scattered at 5,000' AGL

Apr-8@
12:00 UTC

Apr-8 @ 12:00 UTC

Apr-8@
21:00 UTC

Apr-8 @ 21:00 UTC

PROB40 0812/0821 6000 -RA

Probable - 40% Likelihood

Probable - 40% Likelihood during this time.

Conditions
Light Rain
Cloud Levels

Apr-8@
18:00 UTC

Apr-8 @ 18:00 UTC

Apr-9@
00:00 UTC

Apr-9 @ 00:00 UTC

BECMG 0818/0820 16005KT

Becoming

Becoming Conditions expected by Wed, Apr 8, 2020 @ 20:00 UTC

Wind
  • 160° at 5 KTS
Cloud Levels
  • Few at 2,300' AGL
  • Scattered at 5,000' AGL